Cedar Gap, Missouri
Current Conditions -  °F | °C
As of 6:52 AM on Wednesday 22 Oct 2014 (Local Time) from KSGF Reporting Station
Clear Clear  
Wind Chill: 51°   Ceiling: Unl
Heat Index: 51°   Visibility: 10mi
Dew Point: 44°   Wind: 14mph
Humidity: 77%   Direction: 140°SE
Pressure: 30.19"   Gusts: NA
Location:  37.1564°N, 92.7897°W
Report Text: KSGF 221152Z 14012KT 10SM CLR 11/07 A3019 RMK AO2 SLP219 T01060067 10128 20106 53012
Loading
Personal Weather Stations






























Interactive Weather Map
Tropical Storm Tracking
New forecast layout! Learn more

10-Day Weather Forecast

Advertisements
Track Severe Weather on mobile